Time;durP1;ratioP1;P1;durP2;ratioP2;P2;SDS_P1;SDS_P2;PMS_P1;PMS_P2;Temp;Humidity;BMP_temperature;BMP_pressure;BME280_temperature;BME280_humidity;BME280_pressure;Samples;Min_cycle;Max_cycle;Signal;HPM_P1;HPM_P2
2022/04/22 00:00:21;;;;;;;0.80;0.70;;;16.80;63.00;;;;;;5205679;28;20246;-61
2022/04/22 00:03:13;;;;;;;1.13;1.03;;;16.80;63.00;;;;;;5183811;28;20198;-62
2022/04/22 00:06:05;;;;;;;1.13;0.80;;;16.80;63.00;;;;;;5185204;28;20214;-61
2022/04/22 00:08:57;;;;;;;0.70;0.63;;;16.80;63.00;;;;;;5185027;28;20658;-61
2022/04/22 00:11:49;;;;;;;1.07;0.90;;;16.80;63.60;;;;;;5184322;28;20194;-62
2022/04/22 00:14:42;;;;;;;1.10;0.80;;;16.80;63.00;;;;;;5185016;28;20233;-61
2022/04/22 00:17:35;;;;;;;1.67;1.10;;;16.80;63.00;;;;;;5185036;28;20202;-62
2022/04/22 00:20:27;;;;;;;2.10;0.90;;;16.80;63.00;;;;;;5192933;28;20206;-61
2022/04/22 00:23:19;;;;;;;1.30;1.10;;;16.80;63.00;;;;;;5203004;28;20205;-61
2022/04/22 00:26:12;;;;;;;1.53;0.90;;;16.80;63.00;;;;;;5204127;28;20225;-62
2022/04/22 00:29:04;;;;;;;1.27;0.80;;;16.80;62.90;;;;;;5203586;28;20209;-62
2022/04/22 00:31:56;;;;;;;1.30;0.90;;;16.80;63.00;;;;;;5204700;28;20190;-61
2022/04/22 00:34:50;;;;;;;1.10;1.00;;;16.80;63.00;;;;;;5204881;28;20216;-61
2022/04/22 00:37:43;;;;;;;1.60;1.07;;;16.80;63.00;;;;;;5205213;28;20194;-61
2022/04/22 00:40:35;;;;;;;0.90;0.80;;;16.80;63.00;;;;;;5184806;28;20224;-62
2022/04/22 00:43:28;;;;;;;1.10;1.00;;;16.80;62.90;;;;;;5184305;28;20277;-62
2022/04/22 00:46:20;;;;;;;2.03;0.87;;;16.80;62.90;;;;;;5184465;28;20582;-61
2022/04/22 00:49:12;;;;;;;1.30;0.90;;;16.80;62.90;;;;;;5184449;28;20195;-62
2022/04/22 00:52:08;;;;;;;1.13;0.70;;;16.80;62.90;;;;;;5203793;28;20193;-61
2022/04/22 00:55:00;;;;;;;0.97;0.83;;;16.80;62.90;;;;;;5224510;28;20696;-62
2022/04/22 00:57:54;;;;;;;0.93;0.70;;;16.80;62.90;;;;;;5225367;28;20193;-61
2022/04/22 01:00:46;;;;;;;1.70;0.90;;;16.80;62.90;;;;;;5200213;28;20293;-62
2022/04/22 01:03:39;;;;;;;1.03;0.90;;;16.80;62.90;;;;;;5196050;28;20310;-62
2022/04/22 01:09:51;;;;;;;1.23;0.80;;;16.80;62.90;;;;;;5184121;28;20187;-62
2022/04/22 01:12:43;;;;;;;0.90;0.80;;;16.80;62.90;;;;;;5183230;28;20678;-61
2022/04/22 01:15:37;;;;;;;1.00;0.70;;;16.80;62.90;;;;;;5203349;28;20701;-63
2022/04/22 01:18:29;;;;;;;0.97;0.90;;;16.80;62.80;;;;;;5184229;28;20391;-62
2022/04/22 01:21:22;;;;;;;1.20;0.93;;;16.80;62.90;;;;;;5192158;28;20216;-61
2022/04/22 01:24:15;;;;;;;0.70;0.60;;;16.80;62.90;;;;;;5194592;28;20237;-61
2022/04/22 01:27:09;;;;;;;0.97;0.80;;;16.80;62.90;;;;;;5184155;28;20199;-61
2022/04/22 01:30:06;;;;;;;1.47;0.80;;;16.80;62.80;;;;;;5197941;28;20194;-62
2022/04/22 01:32:58;;;;;;;1.00;0.70;;;16.80;62.80;;;;;;5201941;28;20238;-62
2022/04/22 01:35:50;;;;;;;0.70;0.67;;;16.80;62.80;;;;;;5204052;28;20227;-62
2022/04/22 01:38:43;;;;;;;1.20;0.97;;;16.80;62.80;;;;;;5204081;28;20190;-62
2022/04/22 01:41:35;;;;;;;0.80;0.80;;;16.80;62.90;;;;;;5203900;28;20217;-62
2022/04/22 01:44:28;;;;;;;0.97;0.77;;;16.80;62.80;;;;;;5204218;28;20222;-62
2022/04/22 01:47:20;;;;;;;1.00;0.90;;;16.80;62.80;;;;;;5203722;28;20723;-62
2022/04/22 01:50:12;;;;;;;0.67;0.67;;;16.80;62.80;;;;;;5194694;28;20324;-62
2022/04/22 01:53:06;;;;;;;0.60;0.60;;;16.80;62.80;;;;;;5202601;28;20558;-62
2022/04/22 01:55:59;;;;;;;1.60;0.93;;;16.80;62.80;;;;;;5203280;28;20217;-62
2022/04/22 01:58:51;;;;;;;1.30;0.80;;;16.80;62.80;;;;;;5203146;28;20202;-61
2022/04/22 02:01:43;;;;;;;0.60;0.60;;;16.80;62.80;;;;;;5196906;28;20997;-61
2022/04/22 02:04:35;;;;;;;0.73;0.70;;;16.80;62.80;;;;;;5183565;28;20248;-61
2022/04/22 02:07:28;;;;;;;1.10;0.80;;;16.80;62.80;;;;;;5183759;28;20201;-61
2022/04/22 02:10:20;;;;;;;0.97;0.80;;;16.80;62.80;;;;;;5216786;28;20203;-62
2022/04/22 02:13:13;;;;;;;1.40;1.03;;;16.80;62.80;;;;;;5196857;28;20610;-62
2022/04/22 02:16:06;;;;;;;0.73;0.70;;;16.80;62.80;;;;;;5202485;28;20604;-61
2022/04/22 02:18:59;;;;;;;0.70;0.70;;;16.80;62.70;;;;;;5204008;28;20573;-62
2022/04/22 02:21:51;;;;;;;0.90;0.67;;;16.80;62.80;;;;;;5194984;28;20210;-61
2022/04/22 02:24:43;;;;;;;0.67;0.67;;;16.80;62.80;;;;;;5196593;28;20589;-62
2022/04/22 02:30:46;;;;;;;1.00;0.70;;;16.80;62.80;;;;;;5207967;28;20189;-60
2022/04/22 02:33:39;;;;;;;2.37;0.77;;;16.80;62.80;;;;;;5191694;28;20190;-61
2022/04/22 02:36:31;;;;;;;0.83;0.80;;;16.80;62.80;;;;;;5185879;28;20191;-61
2022/04/22 02:39:23;;;;;;;1.00;0.80;;;16.80;62.70;;;;;;5188028;28;20190;-62
2022/04/22 02:45:40;;;;;;;1.33;0.90;;;16.80;62.70;;;;;;5163922;28;20594;-61
2022/04/22 02:48:33;;;;;;;1.00;0.90;;;16.80;62.70;;;;;;5163584;28;20570;-62
2022/04/22 02:51:26;;;;;;;0.97;0.83;;;16.80;62.70;;;;;;5195788;28;20198;-61
2022/04/22 02:54:18;;;;;;;0.80;0.73;;;16.80;62.80;;;;;;5206434;28;20225;-60
2022/04/22 02:57:10;;;;;;;1.00;0.80;;;16.80;62.70;;;;;;5205773;28;20208;-60
2022/04/22 03:00:03;;;;;;;0.60;0.60;;;16.80;62.70;;;;;;5197789;28;20205;-62
2022/04/22 03:02:55;;;;;;;0.70;0.60;;;16.80;62.70;;;;;;5208527;28;20309;-62
2022/04/22 03:05:49;;;;;;;1.17;0.80;;;16.80;62.70;;;;;;5186634;28;20222;-61
2022/04/22 03:08:41;;;;;;;0.90;0.80;;;16.80;62.80;;;;;;5186951;28;20199;-62
2022/04/22 03:11:34;;;;;;;0.73;0.73;;;16.80;62.70;;;;;;5192514;28;20681;-62
2022/04/22 03:14:26;;;;;;;0.90;0.80;;;16.80;62.70;;;;;;5229306;23;20217;-66
2022/04/22 03:17:19;;;;;;;1.10;0.80;;;16.80;62.70;;;;;;5165013;28;20674;-63
2022/04/22 03:20:11;;;;;;;1.13;0.77;;;16.80;62.70;;;;;;5166839;28;20278;-64
2022/04/22 03:23:05;;;;;;;1.00;0.70;;;16.80;62.70;;;;;;5166021;28;20215;-64
2022/04/22 03:25:57;;;;;;;1.03;0.83;;;16.80;62.80;;;;;;5142977;28;20220;-64
2022/04/22 03:28:50;;;;;;;0.83;0.70;;;16.80;62.70;;;;;;5141897;28;20204;-64
2022/04/22 03:31:42;;;;;;;0.70;0.60;;;16.80;62.70;;;;;;5144396;28;20219;-64
2022/04/22 03:34:34;;;;;;;0.80;0.70;;;16.80;62.70;;;;;;5147809;28;20234;-64
2022/04/22 03:37:26;;;;;;;0.87;0.70;;;16.80;62.70;;;;;;5132363;28;20211;-64
2022/04/22 03:40:19;;;;;;;0.60;0.60;;;16.80;62.70;;;;;;5124651;29;20218;-64
2022/04/22 03:43:11;;;;;;;1.37;0.73;;;16.80;62.70;;;;;;5124787;29;20260;-64
2022/04/22 03:46:03;;;;;;;0.87;0.77;;;16.80;62.60;;;;;;5124839;29;20658;-65
2022/04/22 03:48:57;;;;;;;1.67;0.70;;;16.80;62.50;;;;;;5124846;29;20201;-64
2022/04/22 03:51:49;;;;;;;1.27;0.87;;;16.80;62.50;;;;;;5137178;28;20283;-63
2022/04/22 03:54:41;;;;;;;0.60;0.57;;;16.80;63.10;;;;;;5142908;28;20620;-64
2022/04/22 04:00:46;;;;;;;0.73;0.73;;;16.90;63.10;;;;;;5135037;28;20238;-65
2022/04/22 04:03:38;;;;;;;0.93;0.70;;;16.90;62.50;;;;;;5122555;28;20219;-66
2022/04/22 04:06:32;;;;;;;0.87;0.70;;;16.90;62.50;;;;;;5121806;29;20220;-64
2022/04/22 04:16:00;;;;;;;0.70;0.60;;;16.90;62.40;;;;;;5153223;28;20226;-64
2022/04/22 04:23:14;;;;;;;1.10;0.87;;;16.90;62.50;;;;;;5161810;28;20289;-64
2022/04/22 04:25:14;;;;;;;0.70;0.63;;;16.80;62.30;;;;;;5161999;28;20210;-64
2022/04/22 04:28:09;;;;;;;0.70;0.70;;;16.90;62.40;;;;;;5161284;28;20198;-65
2022/04/22 04:31:02;;;;;;;0.60;0.60;;;16.90;62.40;;;;;;5161535;28;20208;-62
2022/04/22 04:33:54;;;;;;;1.10;0.67;;;16.90;62.30;;;;;;5161517;28;20670;-65
2022/04/22 04:36:46;;;;;;;0.70;0.70;;;16.90;62.30;;;;;;5149386;28;20211;-64
2022/04/22 04:39:38;;;;;;;0.80;0.77;;;16.90;62.40;;;;;;5161514;28;20265;-64
2022/04/22 04:42:30;;;;;;;0.90;0.80;;;16.90;62.30;;;;;;5161485;28;20219;-64
2022/04/22 04:45:24;;;;;;;0.60;0.60;;;16.90;62.30;;;;;;5161502;28;20222;-64
2022/04/22 04:48:17;;;;;;;0.80;0.70;;;16.90;62.40;;;;;;5154944;28;20320;-63
2022/04/22 04:51:09;;;;;;;1.10;0.80;;;16.90;62.40;;;;;;5152065;28;20651;-63
2022/04/22 04:54:01;;;;;;;1.13;0.80;;;16.90;62.30;;;;;;5164118;28;20723;-65
2022/04/22 04:56:53;;;;;;;0.50;0.40;;;16.90;62.30;;;;;;5165026;28;20289;-65
2022/04/22 04:59:45;;;;;;;0.93;0.63;;;16.90;62.90;;;;;;5156632;28;20210;-63
2022/04/22 05:02:39;;;;;;;1.73;0.97;;;16.90;62.30;;;;;;5142945;28;20599;-63
2022/04/22 05:05:31;;;;;;;1.40;0.70;;;16.90;62.30;;;;;;5147504;28;20218;-63
2022/04/22 05:08:25;;;;;;;0.73;0.60;;;16.90;62.30;;;;;;5144380;28;20205;-63
2022/04/22 05:11:17;;;;;;;1.33;0.90;;;16.90;62.20;;;;;;5156173;28;20199;-63
2022/04/22 05:14:09;;;;;;;0.87;0.67;;;16.90;62.30;;;;;;5144293;28;20669;-63
2022/04/22 05:17:01;;;;;;;1.13;0.70;;;16.90;62.30;;;;;;5123368;29;20201;-63
2022/04/22 05:19:55;;;;;;;0.73;0.73;;;16.90;62.30;;;;;;5124944;28;20561;-63
2022/04/22 05:22:48;;;;;;;1.33;0.50;;;16.90;62.30;;;;;;5122601;29;20223;-63
2022/04/22 05:25:40;;;;;;;0.90;0.60;;;16.90;62.30;;;;;;5142182;28;20222;-63
2022/04/22 05:28:32;;;;;;;1.10;0.60;;;16.90;62.30;;;;;;5143763;28;20204;-63
2022/04/22 05:34:34;;;;;;;0.50;0.50;;;16.90;62.20;;;;;;5142237;28;20210;-63
2022/04/22 05:37:27;;;;;;;1.03;0.90;;;16.90;62.20;;;;;;5135279;28;20195;-63
2022/04/22 05:40:21;;;;;;;0.83;0.80;;;16.90;62.20;;;;;;5143971;28;20226;-64
2022/04/22 05:43:13;;;;;;;1.30;0.70;;;16.90;62.20;;;;;;5142770;28;20254;-65
2022/04/22 05:46:05;;;;;;;1.07;0.80;;;16.90;62.10;;;;;;5143437;28;20228;-65
2022/04/22 05:48:57;;;;;;;1.17;0.80;;;16.90;62.10;;;;;;5142247;28;20655;-64
2022/04/22 05:51:49;;;;;;;1.27;0.77;;;16.90;62.10;;;;;;5139716;28;20653;-64
2022/04/22 05:54:43;;;;;;;1.03;0.70;;;16.90;62.10;;;;;;5135567;28;20617;-65
2022/04/22 05:57:36;;;;;;;0.70;0.60;;;16.90;62.10;;;;;;5133669;28;20204;-66
2022/04/22 06:00:31;;;;;;;1.23;0.80;;;16.90;62.10;;;;;;5135283;28;20188;-64
2022/04/22 06:03:23;;;;;;;1.07;0.80;;;16.90;62.10;;;;;;5133649;28;20216;-63
2022/04/22 06:06:15;;;;;;;2.33;0.80;;;16.90;62.20;;;;;;5147185;28;20220;-64
2022/04/22 06:12:18;;;;;;;1.10;0.80;;;16.90;62.10;;;;;;5145714;28;20182;-64
2022/04/22 06:15:10;;;;;;;1.13;0.90;;;16.90;62.10;;;;;;5146174;28;20232;-65
2022/04/22 06:18:03;;;;;;;1.20;0.80;;;16.90;61.90;;;;;;5146493;28;20250;-63
2022/04/22 06:20:55;;;;;;;1.77;0.90;;;17.00;62.00;;;;;;5146246;28;20236;-64
2022/04/22 06:23:47;;;;;;;2.40;0.90;;;17.00;61.80;;;;;;5146483;28;20224;-65
2022/04/22 06:26:39;;;;;;;2.70;1.10;;;17.00;61.90;;;;;;5146484;28;20703;-64
2022/04/22 06:29:33;;;;;;;1.80;0.90;;;16.90;61.70;;;;;;5153046;28;20567;-63
2022/04/22 06:32:27;;;;;;;1.37;1.20;;;17.00;61.80;;;;;;5166034;28;20191;-63
2022/04/22 06:35:20;;;;;;;1.67;1.23;;;17.00;61.80;;;;;;5166164;28;20219;-63
2022/04/22 06:38:17;;;;;;;1.53;1.07;;;17.00;61.70;;;;;;5166351;28;20205;-64
2022/04/22 06:47:31;;;;;;;2.13;1.07;;;16.90;61.60;;;;;;5164652;28;20297;-63
2022/04/22 06:50:24;;;;;;;1.67;1.10;;;16.90;62.20;;;;;;5166665;28;20201;-61
2022/04/22 06:53:17;;;;;;;1.47;1.17;;;16.90;61.60;;;;;;5166601;28;20685;-63
2022/04/22 06:56:13;;;;;;;3.30;1.10;;;16.90;61.50;;;;;;5166374;28;20305;-63
2022/04/22 06:59:06;;;;;;;2.50;1.23;;;16.90;61.50;;;;;;5164185;28;20195;-64
2022/04/22 07:01:58;;;;;;;1.30;1.13;;;16.90;61.40;;;;;;5165734;28;20637;-63
2022/04/22 07:04:54;;;;;;;2.47;1.17;;;16.90;61.40;;;;;;5168007;28;20270;-62
2022/04/22 07:07:47;;;;;;;1.50;1.10;;;17.00;61.50;;;;;;5162963;28;20188;-63
2022/04/22 07:10:39;;;;;;;1.50;1.17;;;16.90;61.50;;;;;;5146181;28;20195;-63
2022/04/22 07:13:32;;;;;;;1.47;1.10;;;17.00;61.50;;;;;;5143864;28;20200;-63
2022/04/22 07:16:24;;;;;;;2.83;1.20;;;16.90;61.40;;;;;;5163210;28;20227;-62
2022/04/22 07:19:16;;;;;;;1.30;1.03;;;16.90;61.40;;;;;;5146845;28;20207;-63
2022/04/22 07:22:11;;;;;;;2.03;1.03;;;16.90;61.50;;;;;;5158757;28;20640;-64
2022/04/22 07:25:04;;;;;;;1.50;1.10;;;16.90;61.30;;;;;;5186572;28;20224;-63
2022/04/22 07:27:58;;;;;;;2.77;1.23;;;16.90;62.00;;;;;;5180493;28;20195;-63
2022/04/22 07:30:51;;;;;;;2.37;1.13;;;16.90;61.30;;;;;;5148037;28;20199;-64
2022/04/22 07:33:43;;;;;;;3.50;1.40;;;16.90;61.40;;;;;;5157072;28;20207;-63
2022/04/22 07:36:36;;;;;;;1.20;1.10;;;16.90;61.30;;;;;;5164506;28;20211;-64
2022/04/22 07:39:30;;;;;;;1.87;1.20;;;16.90;61.30;;;;;;5166133;28;20216;-63
2022/04/22 07:42:22;;;;;;;1.57;1.03;;;16.90;61.30;;;;;;5145192;28;20250;-64
2022/04/22 07:48:25;;;;;;;1.40;1.00;;;16.90;61.30;;;;;;5152299;28;20678;-60
2022/04/22 07:51:17;;;;;;;1.60;1.13;;;16.90;61.40;;;;;;5159150;28;20284;-63
2022/04/22 07:54:09;;;;;;;2.23;1.10;;;16.90;61.40;;;;;;5165390;28;20614;-63
2022/04/22 07:57:03;;;;;;;2.47;1.17;;;16.90;61.40;;;;;;5155191;28;20205;-62
2022/04/22 07:59:56;;;;;;;2.60;1.27;;;16.90;61.30;;;;;;5165033;28;20199;-63
2022/04/22 08:02:48;;;;;;;1.27;1.10;;;16.90;61.30;;;;;;5164181;28;20226;-64
2022/04/22 08:05:40;;;;;;;2.23;1.20;;;16.90;61.40;;;;;;5160515;28;20226;-63
2022/04/22 08:08:32;;;;;;;2.83;1.37;;;17.00;61.30;;;;;;5150110;28;20379;-63
2022/04/22 08:11:24;;;;;;;2.77;1.13;;;16.90;61.30;;;;;;5129038;28;20259;-63
2022/04/22 08:14:18;;;;;;;2.37;1.50;;;16.90;61.30;;;;;;5123499;29;20197;-63
2022/04/22 08:17:10;;;;;;;2.47;1.40;;;16.90;61.30;;;;;;5104615;28;20280;-69
2022/04/22 08:20:02;;;;;;;2.07;1.40;;;16.90;61.30;;;;;;5111975;28;20192;-69
2022/04/22 08:22:54;;;;;;;1.60;0.90;;;16.90;61.50;;;;;;5123528;28;20344;-69
2022/04/22 08:25:46;;;;;;;3.17;1.13;;;16.90;61.40;;;;;;5124274;29;20258;-69
2022/04/22 08:28:38;;;;;;;2.20;1.30;;;17.00;61.60;;;;;;5118131;28;20193;-63
2022/04/22 08:31:32;;;;;;;1.00;0.90;;;17.00;61.70;;;;;;5104179;29;20284;-63
2022/04/22 08:34:24;;;;;;;1.30;0.97;;;17.00;61.70;;;;;;5103911;28;20669;-60
2022/04/22 08:37:17;;;;;;;1.23;0.83;;;17.00;61.70;;;;;;5114277;29;20201;-63
2022/04/22 08:40:10;;;;;;;3.90;1.30;;;17.00;61.70;;;;;;5123737;29;20201;-63
2022/04/22 08:43:03;;;;;;;1.70;1.40;;;17.00;61.70;;;;;;5123322;29;20274;-69
2022/04/22 08:45:56;;;;;;;1.50;1.10;;;17.00;61.70;;;;;;5123290;29;20220;-68
2022/04/22 08:52:11;;;;;;;1.53;1.00;;;17.00;61.80;;;;;;5038923;29;20209;-67
2022/04/22 08:55:08;;;;;;;0.97;0.87;;;17.00;61.80;;;;;;5123322;29;20231;-66
2022/04/22 08:58:03;;;;;;;2.07;1.00;;;17.10;61.90;;;;;;5124858;28;20233;-66
2022/04/22 09:00:57;;;;;;;1.20;0.97;;;17.00;61.80;;;;;;5122169;28;20200;-66
2022/04/22 09:03:50;;;;;;;1.73;1.00;;;17.10;61.90;;;;;;5124189;29;20304;-66
2022/04/22 09:06:45;;;;;;;1.47;1.03;;;17.10;62.00;;;;;;5123657;29;20200;-66
2022/04/22 09:09:39;;;;;;;1.90;0.90;;;17.10;62.00;;;;;;5123898;29;20208;-66
2022/04/22 09:12:33;;;;;;;1.33;1.00;;;17.10;62.00;;;;;;5123961;29;20197;-66
2022/04/22 09:15:26;;;;;;;0.90;0.80;;;17.10;62.00;;;;;;5158856;23;20653;-61
2022/04/22 09:18:19;;;;;;;1.40;0.93;;;17.10;62.10;;;;;;5202493;28;20193;-62
2022/04/22 09:21:16;;;;;;;0.80;0.73;;;17.10;62.10;;;;;;5201532;28;20552;-62
2022/04/22 09:24:13;;;;;;;2.33;0.93;;;17.10;62.10;;;;;;5195021;28;20739;-62
2022/04/22 09:27:06;;;;;;;1.20;0.87;;;17.10;62.20;;;;;;5182528;28;20226;-62
2022/04/22 09:29:59;;;;;;;3.47;1.27;;;17.10;62.20;;;;;;5183961;28;20783;-62
2022/04/22 09:32:51;;;;;;;1.37;0.90;;;17.20;62.30;;;;;;5184556;28;20202;-61
2022/04/22 09:45:20;;;;;;;1.73;1.00;;;17.20;62.40;;;;;;5207292;28;20288;-61
2022/04/22 09:48:14;;;;;;;1.23;0.90;;;17.10;62.40;;;;;;5200776;28;20600;-62
2022/04/22 09:51:20;;;;;;;1.37;1.20;;;17.10;62.40;;;;;;5176591;28;20209;-62
2022/04/22 09:54:14;;;;;;;1.00;0.80;;;17.20;62.50;;;;;;5186068;28;20224;-62
2022/04/22 09:57:06;;;;;;;1.10;0.90;;;17.20;62.50;;;;;;5187276;28;20784;-61
2022/04/22 09:59:58;;;;;;;1.93;1.00;;;17.20;62.60;;;;;;5186734;28;20209;-62
2022/04/22 10:02:53;;;;;;;1.60;1.00;;;17.10;62.50;;;;;;5198195;28;20703;-62
2022/04/22 10:05:46;;;;;;;2.20;0.90;;;17.20;62.60;;;;;;5199200;28;20228;-62
2022/04/22 10:08:39;;;;;;;1.13;0.80;;;17.20;62.60;;;;;;5186382;28;20203;-62
2022/04/22 10:11:32;;;;;;;1.80;0.60;;;17.20;62.60;;;;;;5186224;28;20230;-62
2022/04/22 10:14:35;;;;;;;2.00;1.13;;;17.20;62.60;;;;;;5186822;28;20198;-59
2022/04/22 10:17:27;;;;;;;1.57;0.90;;;17.20;63.20;;;;;;5185077;28;20190;-60
2022/04/22 10:20:20;;;;;;;1.60;1.13;;;17.20;62.60;;;;;;5185571;28;20273;-60
2022/04/22 10:23:12;;;;;;;1.20;0.93;;;17.20;62.60;;;;;;5179772;28;20582;-60
2022/04/22 10:26:05;;;;;;;1.07;0.97;;;17.20;62.50;;;;;;5186578;28;20229;-60
2022/04/22 10:28:59;;;;;;;1.77;1.20;;;17.20;62.50;;;;;;5186797;28;20228;-60
2022/04/22 10:31:52;;;;;;;2.07;1.00;;;17.20;62.50;;;;;;5208030;28;20198;-58
2022/04/22 10:34:45;;;;;;;1.07;0.80;;;17.20;62.50;;;;;;5208641;28;20209;-60
2022/04/22 10:37:38;;;;;;;1.77;0.70;;;17.20;62.50;;;;;;5208568;28;20201;-59
2022/04/22 10:40:30;;;;;;;1.50;0.90;;;17.20;62.50;;;;;;5207845;28;20194;-59
2022/04/22 10:43:25;;;;;;;1.13;0.90;;;17.20;62.50;;;;;;5208273;28;20218;-59
2022/04/22 10:49:37;;;;;;;0.77;0.77;;;17.20;62.50;;;;;;5197287;28;20203;-60
2022/04/22 10:52:30;;;;;;;1.30;0.63;;;17.20;62.50;;;;;;5186841;28;20593;-58
2022/04/22 10:55:23;;;;;;;1.10;0.90;;;17.20;62.50;;;;;;5187681;28;20261;-60
2022/04/22 10:58:25;;;;;;;2.47;1.10;;;17.20;62.50;;;;;;5203000;28;20202;-60
2022/04/22 11:01:31;;;;;;;2.03;1.00;;;17.20;62.50;;;;;;5186591;28;20213;-59
2022/04/22 11:04:28;;;;;;;1.70;1.00;;;17.20;62.60;;;;;;5166532;28;20218;-60
2022/04/22 11:07:47;;;;;;;1.97;0.80;;;17.20;62.60;;;;;;5166084;28;20192;-59
2022/04/22 11:11:17;;;;;;;1.27;0.80;;;17.20;62.60;;;;;;5195201;28;20205;-60
2022/04/22 11:14:19;;;;;;;2.10;1.10;;;17.20;62.60;;;;;;5186742;28;20269;-60
2022/04/22 11:17:34;;;;;;;2.43;1.13;;;17.20;62.60;;;;;;5201474;28;20261;-59
2022/04/22 11:20:26;;;;;;;1.30;0.83;;;17.30;62.70;;;;;;5187915;28;20297;-59
2022/04/22 11:23:19;;;;;;;1.90;1.23;;;17.20;62.60;;;;;;5201863;28;20214;-60
2022/04/22 11:26:13;;;;;;;2.50;1.23;;;17.20;62.60;;;;;;5193596;28;20221;-58
2022/04/22 11:29:08;;;;;;;1.40;1.00;;;17.30;62.70;;;;;;5207615;28;20200;-59
2022/04/22 11:32:08;;;;;;;1.70;1.00;;;17.20;62.70;;;;;;5194758;28;20198;-59
2022/04/22 11:35:21;;;;;;;0.97;0.80;;;17.30;62.80;;;;;;5184755;28;20191;-59
2022/04/22 11:38:13;;;;;;;1.73;0.97;;;17.20;62.60;;;;;;5184399;28;20269;-58
2022/04/22 11:41:11;;;;;;;1.67;1.10;;;17.20;62.70;;;;;;5182828;28;20736;-60
2022/04/22 11:44:06;;;;;;;1.90;1.20;;;17.20;62.70;;;;;;5185471;28;20726;-61
2022/04/22 11:47:02;;;;;;;1.33;1.10;;;17.20;62.70;;;;;;5186234;28;20225;-60
2022/04/22 11:49:54;;;;;;;1.30;1.10;;;17.20;62.70;;;;;;5193291;28;20202;-62
2022/04/22 11:52:54;;;;;;;1.50;1.20;;;17.20;62.70;;;;;;5206726;28;20710;-61
2022/04/22 11:55:48;;;;;;;1.77;1.33;;;17.20;62.80;;;;;;5190235;28;20265;-61
2022/04/22 11:58:41;;;;;;;1.20;0.97;;;17.20;62.90;;;;;;5184551;28;20658;-60
2022/04/22 12:08:05;;;;;;;2.07;1.30;;;17.20;63.00;;;;;;5185476;28;20225;-63
2022/04/22 12:10:57;;;;;;;3.97;1.70;;;17.20;63.00;;;;;;5185055;28;20803;-61
2022/04/22 12:13:50;;;;;;;2.27;1.20;;;17.30;62.90;;;;;;5184377;28;20198;-61
2022/04/22 12:16:43;;;;;;;1.83;1.00;;;17.30;62.70;;;;;;5184964;28;20218;-61
2022/04/22 12:19:35;;;;;;;1.40;1.13;;;17.30;62.80;;;;;;5185501;28;20214;-61
2022/04/22 12:22:28;;;;;;;1.57;1.17;;;17.30;62.90;;;;;;5172538;28;20643;-61
2022/04/22 12:25:23;;;;;;;2.70;1.30;;;17.20;62.90;;;;;;5184177;28;20225;-61
2022/04/22 12:28:16;;;;;;;1.80;1.20;;;17.20;62.90;;;;;;5186148;28;20205;-61
2022/04/22 12:31:09;;;;;;;4.30;1.63;;;17.20;62.90;;;;;;5185695;28;20202;-62
2022/04/22 12:34:02;;;;;;;1.83;1.20;;;17.20;62.90;;;;;;5183286;28;20199;-61
2022/04/22 12:36:59;;;;;;;2.27;1.27;;;17.20;62.90;;;;;;5183415;28;20210;-62
2022/04/22 12:39:51;;;;;;;1.87;1.20;;;17.20;62.90;;;;;;5184142;28;20207;-61
2022/04/22 12:42:44;;;;;;;2.10;1.60;;;17.20;62.90;;;;;;5184079;28;20195;-62
2022/04/22 12:52:08;;;;;;;2.90;1.27;;;17.20;62.90;;;;;;5134114;28;20198;-60
2022/04/22 12:55:08;;;;;;;1.63;1.30;;;17.20;62.90;;;;;;5173689;28;20187;-61
2022/04/22 12:58:01;;;;;;;2.50;1.40;;;17.20;63.00;;;;;;5184650;28;20195;-61
2022/04/22 13:00:54;;;;;;;1.03;0.93;;;17.10;62.90;;;;;;5184788;28;20194;-61
2022/04/22 13:03:46;;;;;;;1.93;1.30;;;17.20;63.00;;;;;;5199778;28;20210;-61
2022/04/22 13:06:40;;;;;;;1.83;1.00;;;17.20;63.00;;;;;;5205719;28;20210;-61
2022/04/22 13:09:32;;;;;;;3.33;1.17;;;17.20;63.10;;;;;;5206038;28;20189;-61
2022/04/22 13:12:25;;;;;;;2.17;1.20;;;17.20;63.00;;;;;;5205415;28;20554;-61
2022/04/22 13:15:20;;;;;;;1.23;1.10;;;17.20;63.10;;;;;;5205382;28;20237;-61
2022/04/22 13:18:13;;;;;;;4.20;1.27;;;17.20;63.10;;;;;;5198810;28;20202;-60
2022/04/22 13:21:05;;;;;;;1.20;0.90;;;17.20;63.10;;;;;;5175554;28;20199;-61
2022/04/22 13:23:57;;;;;;;1.60;1.20;;;17.20;63.10;;;;;;5195408;28;20213;-61
2022/04/22 13:26:49;;;;;;;1.57;1.17;;;17.20;63.10;;;;;;5205096;28;20222;-62
2022/04/22 13:29:42;;;;;;;2.87;1.00;;;17.20;63.10;;;;;;5201292;28;20277;-61
2022/04/22 13:32:36;;;;;;;1.50;1.07;;;17.30;63.10;;;;;;5179356;28;20658;-61
2022/04/22 13:35:28;;;;;;;1.80;1.10;;;17.30;63.10;;;;;;5178165;28;20318;-61
2022/04/22 13:38:20;;;;;;;1.73;0.90;;;17.30;63.20;;;;;;5183849;28;20194;-61
2022/04/22 13:41:12;;;;;;;2.80;1.30;;;17.30;63.30;;;;;;5183690;28;20205;-62
2022/04/22 13:44:05;;;;;;;0.93;0.87;;;17.30;63.30;;;;;;5182810;28;20221;-61
2022/04/22 13:53:19;;;;;;;1.73;1.10;;;17.30;63.30;;;;;;5163599;28;20203;-61
2022/04/22 13:56:11;;;;;;;2.63;0.90;;;17.30;63.30;;;;;;5162904;28;20218;-61
2022/04/22 13:59:04;;;;;;;1.90;1.00;;;17.30;63.30;;;;;;5168435;28;20202;-61
2022/04/22 14:01:56;;;;;;;1.57;0.97;;;17.30;63.20;;;;;;5205144;28;20202;-60
2022/04/22 14:04:49;;;;;;;1.83;1.20;;;17.30;63.20;;;;;;5187304;28;20613;-61
2022/04/22 14:07:42;;;;;;;2.65;1.40;;;17.30;63.20;;;;;;5179695;28;20428;-61
2022/04/22 14:10:34;;;;;;;2.10;1.20;;;17.40;63.10;;;;;;5180363;28;20419;-60
2022/04/22 14:13:27;;;;;;;3.13;1.13;;;17.50;62.70;;;;;;5180336;28;20187;-60
2022/04/22 14:16:19;;;;;;;2.20;1.00;;;17.50;62.70;;;;;;5179536;28;20241;-60
2022/04/22 14:19:11;;;;;;;2.07;1.20;;;17.40;62.80;;;;;;5181430;28;20193;-60
2022/04/22 14:22:04;;;;;;;1.23;0.93;;;17.40;63.00;;;;;;5184621;28;20577;-60
2022/04/22 14:24:58;;;;;;;1.13;0.97;;;17.40;63.20;;;;;;5190544;28;20214;-61
2022/04/22 14:27:50;;;;;;;2.63;1.10;;;17.30;63.20;;;;;;5186382;28;20198;-60
2022/04/22 14:30:42;;;;;;;2.10;1.00;;;17.30;63.30;;;;;;5183915;28;20201;-60
2022/04/22 14:33:34;;;;;;;1.40;0.90;;;17.30;63.30;;;;;;5184851;28;20198;-60
2022/04/22 14:36:27;;;;;;;1.43;0.90;;;17.30;63.30;;;;;;5187126;28;20586;-61
2022/04/22 14:39:19;;;;;;;1.80;1.03;;;17.30;63.40;;;;;;5180911;28;20205;-61
2022/04/22 14:42:12;;;;;;;1.27;0.83;;;17.20;63.40;;;;;;5185928;28;20191;-60
2022/04/22 14:45:05;;;;;;;1.30;0.83;;;17.20;63.40;;;;;;5185441;28;20218;-62
2022/04/22 14:47:57;;;;;;;2.60;1.03;;;17.20;63.50;;;;;;5187034;28;20217;-62
2022/04/22 14:50:49;;;;;;;1.87;1.13;;;17.30;63.50;;;;;;5185895;28;20191;-62
2022/04/22 14:53:42;;;;;;;1.10;1.00;;;17.30;63.50;;;;;;5185331;28;20320;-62
2022/04/22 14:56:34;;;;;;;1.03;0.90;;;17.30;63.50;;;;;;5185332;28;20214;-62
2022/04/22 14:59:27;;;;;;;1.43;0.97;;;17.30;63.60;;;;;;5185388;28;20402;-61
2022/04/22 15:02:19;;;;;;;1.37;1.00;;;17.30;63.60;;;;;;5184921;28;20332;-61
2022/04/22 15:05:11;;;;;;;2.97;1.07;;;17.30;63.60;;;;;;5184441;28;20214;-60
2022/04/22 15:08:04;;;;;;;1.20;1.10;;;17.30;63.60;;;;;;5185711;28;20573;-60
2022/04/22 15:10:58;;;;;;;2.63;1.10;;;17.30;63.60;;;;;;5186812;28;20225;-61
2022/04/22 15:13:51;;;;;;;1.13;0.80;;;17.30;63.50;;;;;;5170942;28;20670;-60
2022/04/22 15:16:44;;;;;;;1.20;0.97;;;17.30;63.50;;;;;;5204690;23;20226;-63
2022/04/22 15:25:57;;;;;;;1.50;0.90;;;17.30;63.50;;;;;;5185840;28;20226;-65
2022/04/22 15:28:49;;;;;;;3.23;0.97;;;17.30;63.60;;;;;;5185686;28;20273;-65
2022/04/22 15:31:41;;;;;;;1.90;0.90;;;17.30;63.60;;;;;;5184921;28;20224;-65
2022/04/22 15:34:35;;;;;;;1.87;1.00;;;17.30;63.70;;;;;;5180622;28;20741;-65
2022/04/22 15:37:27;;;;;;;2.03;0.77;;;17.30;63.70;;;;;;5185921;28;20222;-65
2022/04/22 15:40:19;;;;;;;1.17;0.90;;;17.30;63.70;;;;;;5186572;28;20195;-65
2022/04/22 15:43:13;;;;;;;1.87;1.07;;;17.30;63.70;;;;;;5185161;28;20205;-65
2022/04/22 15:46:05;;;;;;;1.30;1.02;;;17.30;63.70;;;;;;5178738;28;20443;-66
2022/04/22 15:48:58;;;;;;;1.33;0.90;;;17.40;63.50;;;;;;5186266;28;20198;-65
2022/04/22 15:51:52;;;;;;;3.60;1.17;;;17.30;63.40;;;;;;5185328;28;20692;-65
2022/04/22 15:54:44;;;;;;;1.53;0.97;;;17.30;63.50;;;;;;5184612;28;20195;-64
2022/04/22 15:57:37;;;;;;;1.67;1.10;;;17.30;63.60;;;;;;5183587;28;20214;-65
2022/04/22 16:00:29;;;;;;;3.77;1.57;;;17.30;63.70;;;;;;5185729;28;20220;-62
2022/04/22 16:03:22;;;;;;;1.83;0.83;;;17.30;63.70;;;;;;5185414;28;20199;-64
2022/04/22 16:06:14;;;;;;;1.90;1.20;;;17.30;63.80;;;;;;5185096;28;20236;-64
2022/04/22 16:09:08;;;;;;;1.87;1.00;;;17.20;63.80;;;;;;5183811;28;20277;-64
2022/04/22 16:18:19;;;;;;;1.07;0.67;;;17.20;63.90;;;;;;5165677;28;20277;-64
2022/04/22 16:21:11;;;;;;;0.93;0.63;;;17.20;63.90;;;;;;5177128;28;20683;-66
2022/04/22 16:24:04;;;;;;;2.00;0.90;;;17.20;64.00;;;;;;5185468;28;20198;-64
2022/04/22 16:26:58;;;;;;;1.60;1.07;;;17.30;64.00;;;;;;5186019;28;20333;-65
2022/04/22 16:29:50;;;;;;;2.17;0.90;;;17.20;64.00;;;;;;5185312;28;20293;-65